sensor_id;sensor_type;location;lat;lon;timestamp;P1;durP1;ratioP1;P2;durP2;ratioP2
20705;SDS011;10514;49.468;11.044;2023-02-01T00:00:51;10.13;;;3.83;;
20705;SDS011;10514;49.468;11.044;2023-02-01T00:03:17;10.90;;;4.13;;
20705;SDS011;10514;49.468;11.044;2023-02-01T00:05:43;7.07;;;4.20;;
20705;SDS011;10514;49.468;11.044;2023-02-01T00:08:09;9.97;;;4.37;;
20705;SDS011;10514;49.468;11.044;2023-02-01T00:10:35;6.40;;;4.37;;
20705;SDS011;10514;49.468;11.044;2023-02-01T00:13:01;9.17;;;4.30;;
20705;SDS011;10514;49.468;11.044;2023-02-01T00:15:27;7.20;;;4.97;;
20705;SDS011;10514;49.468;11.044;2023-02-01T00:17:54;6.90;;;4.43;;
20705;SDS011;10514;49.468;11.044;2023-02-01T00:20:20;6.50;;;4.30;;
20705;SDS011;10514;49.468;11.044;2023-02-01T00:22:46;6.07;;;4.20;;
20705;SDS011;10514;49.468;11.044;2023-02-01T00:25:12;7.23;;;4.40;;
20705;SDS011;10514;49.468;11.044;2023-02-01T00:27:38;6.40;;;4.80;;
20705;SDS011;10514;49.468;11.044;2023-02-01T00:30:04;10.13;;;3.77;;
20705;SDS011;10514;49.468;11.044;2023-02-01T00:32:30;6.57;;;4.63;;
20705;SDS011;10514;49.468;11.044;2023-02-01T00:34:56;8.23;;;4.57;;
20705;SDS011;10514;49.468;11.044;2023-02-01T00:37:22;7.00;;;4.23;;
20705;SDS011;10514;49.468;11.044;2023-02-01T00:39:48;7.40;;;4.53;;
20705;SDS011;10514;49.468;11.044;2023-02-01T00:42:15;8.90;;;4.47;;
20705;SDS011;10514;49.468;11.044;2023-02-01T00:44:41;6.17;;;3.80;;
20705;SDS011;10514;49.468;11.044;2023-02-01T00:47:08;5.93;;;3.60;;
20705;SDS011;10514;49.468;11.044;2023-02-01T00:49:34;4.93;;;3.50;;
20705;SDS011;10514;49.468;11.044;2023-02-01T00:52:00;4.60;;;3.30;;
20705;SDS011;10514;49.468;11.044;2023-02-01T00:54:26;6.63;;;4.00;;
20705;SDS011;10514;49.468;11.044;2023-02-01T00:56:52;6.83;;;4.03;;
20705;SDS011;10514;49.468;11.044;2023-02-01T00:59:18;7.07;;;4.70;;
20705;SDS011;10514;49.468;11.044;2023-02-01T01:01:44;7.63;;;4.33;;
20705;SDS011;10514;49.468;11.044;2023-02-01T01:04:10;6.87;;;3.97;;
20705;SDS011;10514;49.468;11.044;2023-02-01T01:06:36;4.77;;;3.83;;
20705;SDS011;10514;49.468;11.044;2023-02-01T01:09:03;6.00;;;3.83;;
20705;SDS011;10514;49.468;11.044;2023-02-01T01:11:30;8.60;;;4.13;;
20705;SDS011;10514;49.468;11.044;2023-02-01T01:13:58;8.00;;;4.60;;
20705;SDS011;10514;49.468;11.044;2023-02-01T01:16:25;5.30;;;3.73;;
20705;SDS011;10514;49.468;11.044;2023-02-01T01:18:51;7.00;;;4.30;;
20705;SDS011;10514;49.468;11.044;2023-02-01T01:21:18;8.73;;;4.00;;
20705;SDS011;10514;49.468;11.044;2023-02-01T01:23:44;6.50;;;4.63;;
20705;SDS011;10514;49.468;11.044;2023-02-01T01:26:14;7.83;;;4.23;;
20705;SDS011;10514;49.468;11.044;2023-02-01T01:28:45;5.27;;;3.40;;
20705;SDS011;10514;49.468;11.044;2023-02-01T01:31:12;9.30;;;4.70;;
20705;SDS011;10514;49.468;11.044;2023-02-01T01:33:38;7.10;;;4.57;;
20705;SDS011;10514;49.468;11.044;2023-02-01T01:36:08;5.90;;;3.80;;
20705;SDS011;10514;49.468;11.044;2023-02-01T01:38:38;6.47;;;4.27;;
20705;SDS011;10514;49.468;11.044;2023-02-01T01:41:04;6.43;;;4.40;;
20705;SDS011;10514;49.468;11.044;2023-02-01T01:46:22;7.83;;;5.00;;
20705;SDS011;10514;49.468;11.044;2023-02-01T01:51:24;5.93;;;4.13;;
20705;SDS011;10514;49.468;11.044;2023-02-01T01:53:54;8.73;;;3.70;;
20705;SDS011;10514;49.468;11.044;2023-02-01T01:56:21;4.80;;;3.57;;
20705;SDS011;10514;49.468;11.044;2023-02-01T01:58:47;8.97;;;3.70;;
20705;SDS011;10514;49.468;11.044;2023-02-01T02:01:13;5.43;;;4.00;;
20705;SDS011;10514;49.468;11.044;2023-02-01T02:03:41;5.70;;;3.27;;
20705;SDS011;10514;49.468;11.044;2023-02-01T02:06:20;6.33;;;4.33;;
20705;SDS011;10514;49.468;11.044;2023-02-01T02:08:49;6.00;;;3.47;;
20705;SDS011;10514;49.468;11.044;2023-02-01T02:11:16;7.07;;;4.13;;
20705;SDS011;10514;49.468;11.044;2023-02-01T02:13:43;6.17;;;3.77;;
20705;SDS011;10514;49.468;11.044;2023-02-01T02:16:15;8.13;;;3.97;;
20705;SDS011;10514;49.468;11.044;2023-02-01T02:39:23;6.03;;;3.50;;
20705;SDS011;10514;49.468;11.044;2023-02-01T02:42:01;6.53;;;3.70;;
20705;SDS011;10514;49.468;11.044;2023-02-01T02:44:59;7.17;;;3.70;;
20705;SDS011;10514;49.468;11.044;2023-02-01T02:47:58;8.43;;;4.17;;
20705;SDS011;10514;49.468;11.044;2023-02-01T02:50:28;8.40;;;4.50;;
20705;SDS011;10514;49.468;11.044;2023-02-01T02:53:15;8.20;;;4.10;;
20705;SDS011;10514;49.468;11.044;2023-02-01T02:56:03;6.37;;;4.60;;
20705;SDS011;10514;49.468;11.044;2023-02-01T02:58:50;8.40;;;4.23;;
20705;SDS011;10514;49.468;11.044;2023-02-01T03:01:36;5.47;;;4.20;;
20705;SDS011;10514;49.468;11.044;2023-02-01T03:04:22;5.13;;;4.00;;
20705;SDS011;10514;49.468;11.044;2023-02-01T03:06:48;8.97;;;5.13;;
20705;SDS011;10514;49.468;11.044;2023-02-01T03:09:23;8.33;;;4.57;;
20705;SDS011;10514;49.468;11.044;2023-02-01T03:11:52;8.53;;;4.63;;
20705;SDS011;10514;49.468;11.044;2023-02-01T03:14:45;11.30;;;4.20;;
20705;SDS011;10514;49.468;11.044;2023-02-01T03:17:15;6.03;;;3.87;;
20705;SDS011;10514;49.468;11.044;2023-02-01T03:19:45;7.17;;;4.17;;
20705;SDS011;10514;49.468;11.044;2023-02-01T03:22:15;5.23;;;3.70;;
20705;SDS011;10514;49.468;11.044;2023-02-01T03:24:56;6.43;;;3.73;;
20705;SDS011;10514;49.468;11.044;2023-02-01T03:27:27;5.17;;;4.10;;
20705;SDS011;10514;49.468;11.044;2023-02-01T03:32:26;6.60;;;4.60;;
20705;SDS011;10514;49.468;11.044;2023-02-01T03:34:52;7.33;;;4.80;;
20705;SDS011;10514;49.468;11.044;2023-02-01T03:37:25;8.20;;;4.23;;
20705;SDS011;10514;49.468;11.044;2023-02-01T03:40:03;8.20;;;4.60;;
20705;SDS011;10514;49.468;11.044;2023-02-01T03:42:38;6.53;;;4.70;;
20705;SDS011;10514;49.468;11.044;2023-02-01T03:45:14;6.83;;;4.23;;
20705;SDS011;10514;49.468;11.044;2023-02-01T03:47:45;9.70;;;5.43;;
20705;SDS011;10514;49.468;11.044;2023-02-01T03:50:13;8.87;;;5.43;;
20705;SDS011;10514;49.468;11.044;2023-02-01T03:52:45;6.77;;;5.00;;
20705;SDS011;10514;49.468;11.044;2023-02-01T03:55:13;10.33;;;5.40;;
20705;SDS011;10514;49.468;11.044;2023-02-01T03:57:41;6.03;;;4.70;;
20705;SDS011;10514;49.468;11.044;2023-02-01T04:00:14;9.33;;;4.77;;
20705;SDS011;10514;49.468;11.044;2023-02-01T04:02:41;8.73;;;4.90;;
20705;SDS011;10514;49.468;11.044;2023-02-01T04:05:07;6.90;;;4.33;;
20705;SDS011;10514;49.468;11.044;2023-02-01T04:07:33;12.93;;;5.23;;
20705;SDS011;10514;49.468;11.044;2023-02-01T04:09:59;8.23;;;5.60;;
20705;SDS011;10514;49.468;11.044;2023-02-01T04:12:25;7.40;;;4.53;;
20705;SDS011;10514;49.468;11.044;2023-02-01T04:14:51;8.43;;;5.70;;
20705;SDS011;10514;49.468;11.044;2023-02-01T04:17:17;9.10;;;5.40;;
20705;SDS011;10514;49.468;11.044;2023-02-01T04:19:43;7.67;;;5.20;;
20705;SDS011;10514;49.468;11.044;2023-02-01T04:22:09;9.07;;;5.03;;
20705;SDS011;10514;49.468;11.044;2023-02-01T04:24:35;10.47;;;5.60;;
20705;SDS011;10514;49.468;11.044;2023-02-01T04:27:01;9.77;;;5.53;;
20705;SDS011;10514;49.468;11.044;2023-02-01T04:29:27;6.63;;;4.90;;
20705;SDS011;10514;49.468;11.044;2023-02-01T04:31:53;7.83;;;5.40;;
20705;SDS011;10514;49.468;11.044;2023-02-01T04:34:19;7.07;;;5.07;;
20705;SDS011;10514;49.468;11.044;2023-02-01T04:36:47;8.90;;;4.63;;
20705;SDS011;10514;49.468;11.044;2023-02-01T04:39:13;8.10;;;5.30;;
20705;SDS011;10514;49.468;11.044;2023-02-01T04:41:39;7.33;;;4.90;;
20705;SDS011;10514;49.468;11.044;2023-02-01T04:44:05;8.40;;;5.47;;
20705;SDS011;10514;49.468;11.044;2023-02-01T04:46:31;7.23;;;4.97;;
20705;SDS011;10514;49.468;11.044;2023-02-01T04:48:57;10.00;;;6.00;;
20705;SDS011;10514;49.468;11.044;2023-02-01T04:51:22;9.20;;;5.63;;
20705;SDS011;10514;49.468;11.044;2023-02-01T04:53:48;10.57;;;5.70;;
20705;SDS011;10514;49.468;11.044;2023-02-01T04:56:14;13.80;;;5.53;;
20705;SDS011;10514;49.468;11.044;2023-02-01T04:58:40;10.47;;;5.30;;
20705;SDS011;10514;49.468;11.044;2023-02-01T05:01:06;13.10;;;5.97;;
20705;SDS011;10514;49.468;11.044;2023-02-01T05:03:33;7.77;;;4.87;;
20705;SDS011;10514;49.468;11.044;2023-02-01T05:05:59;7.90;;;5.17;;
20705;SDS011;10514;49.468;11.044;2023-02-01T05:08:25;9.40;;;5.13;;
20705;SDS011;10514;49.468;11.044;2023-02-01T05:10:52;12.57;;;5.60;;
20705;SDS011;10514;49.468;11.044;2023-02-01T05:13:18;8.03;;;4.90;;
20705;SDS011;10514;49.468;11.044;2023-02-01T05:16:02;7.77;;;5.77;;
20705;SDS011;10514;49.468;11.044;2023-02-01T05:18:29;11.60;;;6.03;;
20705;SDS011;10514;49.468;11.044;2023-02-01T05:20:55;9.20;;;5.60;;
20705;SDS011;10514;49.468;11.044;2023-02-01T05:23:20;8.37;;;5.60;;
20705;SDS011;10514;49.468;11.044;2023-02-01T05:25:46;10.97;;;4.77;;
20705;SDS011;10514;49.468;11.044;2023-02-01T05:28:12;9.23;;;5.50;;
20705;SDS011;10514;49.468;11.044;2023-02-01T05:30:38;8.10;;;4.73;;
20705;SDS011;10514;49.468;11.044;2023-02-01T05:33:04;10.07;;;4.87;;
20705;SDS011;10514;49.468;11.044;2023-02-01T05:35:30;9.47;;;5.73;;
20705;SDS011;10514;49.468;11.044;2023-02-01T05:37:56;10.77;;;6.00;;
20705;SDS011;10514;49.468;11.044;2023-02-01T05:40:22;7.70;;;5.03;;
20705;SDS011;10514;49.468;11.044;2023-02-01T05:42:48;10.13;;;5.30;;
20705;SDS011;10514;49.468;11.044;2023-02-01T05:45:14;7.83;;;5.60;;
20705;SDS011;10514;49.468;11.044;2023-02-01T05:47:40;5.87;;;3.97;;
20705;SDS011;10514;49.468;11.044;2023-02-01T05:50:06;9.27;;;5.17;;
20705;SDS011;10514;49.468;11.044;2023-02-01T05:52:32;6.77;;;4.57;;
20705;SDS011;10514;49.468;11.044;2023-02-01T05:54:58;6.00;;;4.37;;
20705;SDS011;10514;49.468;11.044;2023-02-01T05:57:24;7.60;;;5.03;;
20705;SDS011;10514;49.468;11.044;2023-02-01T05:59:49;7.00;;;4.33;;
20705;SDS011;10514;49.468;11.044;2023-02-01T06:02:15;5.00;;;3.50;;
20705;SDS011;10514;49.468;11.044;2023-02-01T06:04:41;5.40;;;3.30;;
20705;SDS011;10514;49.468;11.044;2023-02-01T06:07:07;7.30;;;3.70;;
20705;SDS011;10514;49.468;11.044;2023-02-01T06:09:34;4.90;;;3.07;;
20705;SDS011;10514;49.468;11.044;2023-02-01T06:12:00;5.87;;;2.50;;
20705;SDS011;10514;49.468;11.044;2023-02-01T06:14:26;4.87;;;2.87;;
20705;SDS011;10514;49.468;11.044;2023-02-01T06:16:52;4.23;;;2.30;;
20705;SDS011;10514;49.468;11.044;2023-02-01T06:19:19;5.87;;;2.83;;
20705;SDS011;10514;49.468;11.044;2023-02-01T06:21:44;3.07;;;2.00;;
20705;SDS011;10514;49.468;11.044;2023-02-01T06:24:11;2.93;;;2.40;;
20705;SDS011;10514;49.468;11.044;2023-02-01T06:26:37;3.97;;;2.50;;
20705;SDS011;10514;49.468;11.044;2023-02-01T06:29:04;4.17;;;2.90;;
20705;SDS011;10514;49.468;11.044;2023-02-01T06:31:31;3.87;;;2.33;;
20705;SDS011;10514;49.468;11.044;2023-02-01T06:33:57;4.63;;;2.63;;
20705;SDS011;10514;49.468;11.044;2023-02-01T06:36:23;5.67;;;2.63;;
20705;SDS011;10514;49.468;11.044;2023-02-01T06:38:49;5.60;;;2.63;;
20705;SDS011;10514;49.468;11.044;2023-02-01T06:41:15;4.73;;;2.80;;
20705;SDS011;10514;49.468;11.044;2023-02-01T06:43:41;2.67;;;2.20;;
20705;SDS011;10514;49.468;11.044;2023-02-01T06:46:09;5.03;;;2.30;;
20705;SDS011;10514;49.468;11.044;2023-02-01T06:48:37;2.77;;;1.83;;
20705;SDS011;10514;49.468;11.044;2023-02-01T06:51:03;3.30;;;1.90;;
20705;SDS011;10514;49.468;11.044;2023-02-01T06:53:29;2.73;;;2.00;;
20705;SDS011;10514;49.468;11.044;2023-02-01T06:55:56;2.47;;;2.10;;
20705;SDS011;10514;49.468;11.044;2023-02-01T06:58:22;2.67;;;1.80;;
20705;SDS011;10514;49.468;11.044;2023-02-01T07:00:48;3.13;;;2.07;;
20705;SDS011;10514;49.468;11.044;2023-02-01T07:03:15;2.67;;;1.50;;
20705;SDS011;10514;49.468;11.044;2023-02-01T07:05:41;2.83;;;2.07;;
20705;SDS011;10514;49.468;11.044;2023-02-01T07:08:07;2.60;;;1.83;;
20705;SDS011;10514;49.468;11.044;2023-02-01T07:10:36;2.77;;;1.80;;
20705;SDS011;10514;49.468;11.044;2023-02-01T07:13:02;3.07;;;2.03;;
20705;SDS011;10514;49.468;11.044;2023-02-01T07:15:28;4.53;;;2.27;;
20705;SDS011;10514;49.468;11.044;2023-02-01T07:17:54;4.23;;;2.00;;
20705;SDS011;10514;49.468;11.044;2023-02-01T07:20:20;4.23;;;2.40;;
20705;SDS011;10514;49.468;11.044;2023-02-01T07:22:46;2.90;;;2.00;;
20705;SDS011;10514;49.468;11.044;2023-02-01T07:25:12;3.30;;;2.07;;
20705;SDS011;10514;49.468;11.044;2023-02-01T07:27:38;2.73;;;1.90;;
20705;SDS011;10514;49.468;11.044;2023-02-01T07:30:05;4.60;;;2.40;;
20705;SDS011;10514;49.468;11.044;2023-02-01T07:32:31;4.70;;;2.43;;
20705;SDS011;10514;49.468;11.044;2023-02-01T07:34:57;6.43;;;2.20;;
20705;SDS011;10514;49.468;11.044;2023-02-01T07:37:23;4.27;;;2.70;;
20705;SDS011;10514;49.468;11.044;2023-02-01T07:39:50;5.27;;;2.60;;
20705;SDS011;10514;49.468;11.044;2023-02-01T07:42:16;3.20;;;2.23;;
20705;SDS011;10514;49.468;11.044;2023-02-01T07:44:42;3.63;;;2.80;;
20705;SDS011;10514;49.468;11.044;2023-02-01T07:47:08;3.20;;;2.30;;
20705;SDS011;10514;49.468;11.044;2023-02-01T07:49:34;6.73;;;2.50;;
20705;SDS011;10514;49.468;11.044;2023-02-01T07:52:00;3.50;;;2.70;;
20705;SDS011;10514;49.468;11.044;2023-02-01T07:54:26;2.40;;;2.03;;
20705;SDS011;10514;49.468;11.044;2023-02-01T07:56:52;3.70;;;2.60;;
20705;SDS011;10514;49.468;11.044;2023-02-01T07:59:18;4.27;;;2.63;;
20705;SDS011;10514;49.468;11.044;2023-02-01T08:01:44;3.33;;;2.17;;
20705;SDS011;10514;49.468;11.044;2023-02-01T08:04:10;6.43;;;2.70;;
20705;SDS011;10514;49.468;11.044;2023-02-01T08:06:37;6.33;;;2.27;;
20705;SDS011;10514;49.468;11.044;2023-02-01T08:09:03;6.40;;;2.17;;
20705;SDS011;10514;49.468;11.044;2023-02-01T08:11:30;6.17;;;2.60;;
20705;SDS011;10514;49.468;11.044;2023-02-01T08:13:57;4.67;;;1.80;;
20705;SDS011;10514;49.468;11.044;2023-02-01T08:16:23;4.33;;;2.10;;
20705;SDS011;10514;49.468;11.044;2023-02-01T08:18:50;5.10;;;2.20;;
20705;SDS011;10514;49.468;11.044;2023-02-01T08:21:18;3.37;;;1.60;;
20705;SDS011;10514;49.468;11.044;2023-02-01T08:23:45;3.77;;;1.43;;
20705;SDS011;10514;49.468;11.044;2023-02-01T08:26:16;3.07;;;1.77;;
20705;SDS011;10514;49.468;11.044;2023-02-01T08:28:43;2.83;;;1.83;;
20705;SDS011;10514;49.468;11.044;2023-02-01T08:31:12;4.00;;;1.80;;
20705;SDS011;10514;49.468;11.044;2023-02-01T08:33:39;2.33;;;1.53;;
20705;SDS011;10514;49.468;11.044;2023-02-01T08:36:06;4.97;;;1.83;;
20705;SDS011;10514;49.468;11.044;2023-02-01T08:38:34;4.00;;;1.53;;
20705;SDS011;10514;49.468;11.044;2023-02-01T08:41:05;1.47;;;1.30;;
20705;SDS011;10514;49.468;11.044;2023-02-01T08:43:31;4.90;;;1.70;;
20705;SDS011;10514;49.468;11.044;2023-02-01T08:45:57;3.57;;;1.57;;
20705;SDS011;10514;49.468;11.044;2023-02-01T08:48:23;5.70;;;1.70;;
20705;SDS011;10514;49.468;11.044;2023-02-01T08:50:49;5.17;;;1.97;;
20705;SDS011;10514;49.468;11.044;2023-02-01T08:53:15;2.80;;;1.43;;
20705;SDS011;10514;49.468;11.044;2023-02-01T08:55:41;4.27;;;1.70;;
20705;SDS011;10514;49.468;11.044;2023-02-01T08:58:07;15.80;;;1.97;;
20705;SDS011;10514;49.468;11.044;2023-02-01T09:00:33;3.23;;;2.00;;
20705;SDS011;10514;49.468;11.044;2023-02-01T09:02:59;4.87;;;1.80;;
20705;SDS011;10514;49.468;11.044;2023-02-01T09:05:25;6.97;;;2.50;;
20705;SDS011;10514;49.468;11.044;2023-02-01T09:07:52;4.47;;;1.90;;
20705;SDS011;10514;49.468;11.044;2023-02-01T09:10:18;3.73;;;2.00;;
20705;SDS011;10514;49.468;11.044;2023-02-01T09:12:43;8.47;;;2.40;;
20705;SDS011;10514;49.468;11.044;2023-02-01T09:15:09;4.10;;;2.00;;
20705;SDS011;10514;49.468;11.044;2023-02-01T09:17:35;5.23;;;2.40;;
20705;SDS011;10514;49.468;11.044;2023-02-01T09:20:02;5.67;;;2.50;;
20705;SDS011;10514;49.468;11.044;2023-02-01T09:22:28;6.63;;;2.10;;
20705;SDS011;10514;49.468;11.044;2023-02-01T09:24:54;5.43;;;2.17;;
20705;SDS011;10514;49.468;11.044;2023-02-01T09:27:20;4.13;;;1.80;;
20705;SDS011;10514;49.468;11.044;2023-02-01T09:29:47;4.13;;;1.70;;
20705;SDS011;10514;49.468;11.044;2023-02-01T09:32:18;7.43;;;1.70;;
20705;SDS011;10514;49.468;11.044;2023-02-01T09:34:44;4.50;;;1.30;;
20705;SDS011;10514;49.468;11.044;2023-02-01T09:37:10;6.33;;;1.47;;
20705;SDS011;10514;49.468;11.044;2023-02-01T09:39:36;6.23;;;1.03;;
20705;SDS011;10514;49.468;11.044;2023-02-01T09:42:08;6.30;;;0.90;;
20705;SDS011;10514;49.468;11.044;2023-02-01T09:44:59;4.77;;;1.50;;
20705;SDS011;10514;49.468;11.044;2023-02-01T09:47:27;8.13;;;1.40;;
20705;SDS011;10514;49.468;11.044;2023-02-01T09:55:51;6.00;;;1.27;;
20705;SDS011;10514;49.468;11.044;2023-02-01T10:00:49;5.20;;;1.20;;
20705;SDS011;10514;49.468;11.044;2023-02-01T10:03:23;7.00;;;1.30;;
20705;SDS011;10514;49.468;11.044;2023-02-01T10:10:49;4.70;;;1.20;;
20705;SDS011;10514;49.468;11.044;2023-02-01T10:15:47;6.47;;;1.80;;
20705;SDS011;10514;49.468;11.044;2023-02-01T10:23:34;7.17;;;1.80;;
20705;SDS011;10514;49.468;11.044;2023-02-01T10:26:27;10.10;;;2.13;;
20705;SDS011;10514;49.468;11.044;2023-02-01T10:28:58;12.63;;;2.63;;
20705;SDS011;10514;49.468;11.044;2023-02-01T10:31:26;8.97;;;2.77;;
20705;SDS011;10514;49.468;11.044;2023-02-01T10:33:58;7.40;;;3.00;;
20705;SDS011;10514;49.468;11.044;2023-02-01T10:36:28;8.03;;;3.30;;
20705;SDS011;10514;49.468;11.044;2023-02-01T10:38:55;9.07;;;2.50;;
20705;SDS011;10514;49.468;11.044;2023-02-01T10:41:21;5.63;;;2.83;;
20705;SDS011;10514;49.468;11.044;2023-02-01T10:43:50;8.57;;;2.47;;
20705;SDS011;10514;49.468;11.044;2023-02-01T10:46:19;8.33;;;3.20;;
20705;SDS011;10514;49.468;11.044;2023-02-01T10:48:45;9.00;;;2.37;;
20705;SDS011;10514;49.468;11.044;2023-02-01T10:51:14;10.43;;;2.70;;
20705;SDS011;10514;49.468;11.044;2023-02-01T10:54:00;7.23;;;2.97;;
20705;SDS011;10514;49.468;11.044;2023-02-01T10:56:27;7.90;;;3.23;;
20705;SDS011;10514;49.468;11.044;2023-02-01T10:59:04;7.90;;;3.10;;
20705;SDS011;10514;49.468;11.044;2023-02-01T11:01:34;9.37;;;2.73;;
20705;SDS011;10514;49.468;11.044;2023-02-01T11:04:03;10.20;;;2.97;;
20705;SDS011;10514;49.468;11.044;2023-02-01T11:06:31;14.03;;;2.77;;
20705;SDS011;10514;49.468;11.044;2023-02-01T11:08:59;10.03;;;3.07;;
20705;SDS011;10514;49.468;11.044;2023-02-01T11:11:29;13.63;;;3.97;;
20705;SDS011;10514;49.468;11.044;2023-02-01T11:13:57;14.30;;;3.53;;
20705;SDS011;10514;49.468;11.044;2023-02-01T11:16:28;10.03;;;2.90;;
20705;SDS011;10514;49.468;11.044;2023-02-01T11:19:02;5.10;;;2.00;;
20705;SDS011;10514;49.468;11.044;2023-02-01T11:21:28;8.67;;;2.30;;
20705;SDS011;10514;49.468;11.044;2023-02-01T11:23:54;10.13;;;2.10;;
20705;SDS011;10514;49.468;11.044;2023-02-01T11:26:24;8.63;;;2.57;;
20705;SDS011;10514;49.468;11.044;2023-02-01T11:28:51;8.03;;;2.30;;
20705;SDS011;10514;49.468;11.044;2023-02-01T11:31:18;7.87;;;2.67;;
20705;SDS011;10514;49.468;11.044;2023-02-01T11:33:55;8.40;;;1.90;;
20705;SDS011;10514;49.468;11.044;2023-02-01T11:36:24;9.60;;;2.03;;
20705;SDS011;10514;49.468;11.044;2023-02-01T11:38:54;7.57;;;2.00;;
20705;SDS011;10514;49.468;11.044;2023-02-01T11:41:34;10.17;;;2.67;;
20705;SDS011;10514;49.468;11.044;2023-02-01T11:44:16;10.83;;;2.33;;
20705;SDS011;10514;49.468;11.044;2023-02-01T11:46:44;10.90;;;2.30;;
20705;SDS011;10514;49.468;11.044;2023-02-01T11:49:20;7.20;;;2.10;;
20705;SDS011;10514;49.468;11.044;2023-02-01T11:54:31;12.63;;;3.10;;
20705;SDS011;10514;49.468;11.044;2023-02-01T12:07:30;10.03;;;2.50;;
20705;SDS011;10514;49.468;11.044;2023-02-01T12:10:14;7.27;;;2.10;;
20705;SDS011;10514;49.468;11.044;2023-02-01T12:15:40;9.30;;;2.23;;
20705;SDS011;10514;49.468;11.044;2023-02-01T12:21:06;12.17;;;2.23;;
20705;SDS011;10514;49.468;11.044;2023-02-01T12:39:45;10.47;;;2.47;;
20705;SDS011;10514;49.468;11.044;2023-02-01T12:42:19;10.37;;;2.10;;
20705;SDS011;10514;49.468;11.044;2023-02-01T12:44:56;9.00;;;1.77;;
20705;SDS011;10514;49.468;11.044;2023-02-01T12:47:33;7.77;;;2.13;;
20705;SDS011;10514;49.468;11.044;2023-02-01T12:50:02;5.77;;;2.07;;
20705;SDS011;10514;49.468;11.044;2023-02-01T12:52:46;8.27;;;1.97;;
20705;SDS011;10514;49.468;11.044;2023-02-01T12:55:23;11.23;;;2.03;;
20705;SDS011;10514;49.468;11.044;2023-02-01T12:57:51;11.00;;;2.17;;
20705;SDS011;10514;49.468;11.044;2023-02-01T13:05:52;6.87;;;2.00;;
20705;SDS011;10514;49.468;11.044;2023-02-01T13:08:22;4.93;;;1.90;;
20705;SDS011;10514;49.468;11.044;2023-02-01T13:11:06;8.97;;;1.90;;
20705;SDS011;10514;49.468;11.044;2023-02-01T13:13:48;9.73;;;2.10;;
20705;SDS011;10514;49.468;11.044;2023-02-01T13:16:23;7.83;;;1.77;;
20705;SDS011;10514;49.468;11.044;2023-02-01T13:18:54;11.67;;;2.07;;
20705;SDS011;10514;49.468;11.044;2023-02-01T13:21:24;7.03;;;2.20;;
20705;SDS011;10514;49.468;11.044;2023-02-01T13:23:50;5.40;;;2.30;;
20705;SDS011;10514;49.468;11.044;2023-02-01T13:26:17;6.03;;;1.90;;
20705;SDS011;10514;49.468;11.044;2023-02-01T13:28:54;5.17;;;1.93;;
20705;SDS011;10514;49.468;11.044;2023-02-01T13:31:29;11.27;;;2.93;;
20705;SDS011;10514;49.468;11.044;2023-02-01T13:34:15;10.33;;;2.27;;
20705;SDS011;10514;49.468;11.044;2023-02-01T13:39:41;8.17;;;2.17;;
20705;SDS011;10514;49.468;11.044;2023-02-01T13:45:02;7.63;;;1.50;;
20705;SDS011;10514;49.468;11.044;2023-02-01T13:47:39;8.57;;;1.80;;
20705;SDS011;10514;49.468;11.044;2023-02-01T13:55:26;8.07;;;2.03;;
20705;SDS011;10514;49.468;11.044;2023-02-01T13:58:00;6.63;;;1.60;;
20705;SDS011;10514;49.468;11.044;2023-02-01T14:00:28;10.43;;;2.17;;
20705;SDS011;10514;49.468;11.044;2023-02-01T14:16:10;8.53;;;1.97;;
20705;SDS011;10514;49.468;11.044;2023-02-01T14:23:41;5.53;;;2.10;;
20705;SDS011;10514;49.468;11.044;2023-02-01T14:26:09;12.77;;;2.87;;
20705;SDS011;10514;49.468;11.044;2023-02-01T14:28:42;9.13;;;1.90;;
20705;SDS011;10514;49.468;11.044;2023-02-01T14:31:14;9.67;;;1.87;;
20705;SDS011;10514;49.468;11.044;2023-02-01T14:33:41;10.23;;;2.67;;
20705;SDS011;10514;49.468;11.044;2023-02-01T14:36:08;9.43;;;2.20;;
20705;SDS011;10514;49.468;11.044;2023-02-01T14:38:37;13.93;;;2.53;;
20705;SDS011;10514;49.468;11.044;2023-02-01T14:41:29;16.77;;;2.33;;
20705;SDS011;10514;49.468;11.044;2023-02-01T14:49:12;9.60;;;2.30;;
20705;SDS011;10514;49.468;11.044;2023-02-01T14:51:38;8.63;;;2.03;;
20705;SDS011;10514;49.468;11.044;2023-02-01T14:54:04;12.77;;;2.00;;
20705;SDS011;10514;49.468;11.044;2023-02-01T14:56:33;10.40;;;2.63;;
20705;SDS011;10514;49.468;11.044;2023-02-01T14:59:00;12.73;;;2.50;;
20705;SDS011;10514;49.468;11.044;2023-02-01T15:01:33;12.17;;;2.50;;
20705;SDS011;10514;49.468;11.044;2023-02-01T15:04:15;10.63;;;2.03;;
20705;SDS011;10514;49.468;11.044;2023-02-01T15:07:07;8.90;;;2.53;;
20705;SDS011;10514;49.468;11.044;2023-02-01T15:09:37;9.63;;;1.57;;
20705;SDS011;10514;49.468;11.044;2023-02-01T15:12:08;8.00;;;2.13;;
20705;SDS011;10514;49.468;11.044;2023-02-01T15:14:44;4.33;;;1.57;;
20705;SDS011;10514;49.468;11.044;2023-02-01T15:19:53;13.10;;;3.00;;
20705;SDS011;10514;49.468;11.044;2023-02-01T15:22:19;8.27;;;2.17;;
20705;SDS011;10514;49.468;11.044;2023-02-01T15:24:51;9.40;;;2.50;;
20705;SDS011;10514;49.468;11.044;2023-02-01T15:27:17;11.30;;;1.67;;
20705;SDS011;10514;49.468;11.044;2023-02-01T15:29:43;11.57;;;2.60;;
20705;SDS011;10514;49.468;11.044;2023-02-01T15:32:27;12.13;;;2.77;;
20705;SDS011;10514;49.468;11.044;2023-02-01T15:34:53;10.83;;;3.07;;
20705;SDS011;10514;49.468;11.044;2023-02-01T15:37:20;6.67;;;2.13;;
20705;SDS011;10514;49.468;11.044;2023-02-01T15:40:03;15.80;;;2.90;;
20705;SDS011;10514;49.468;11.044;2023-02-01T15:42:29;9.13;;;2.23;;
20705;SDS011;10514;49.468;11.044;2023-02-01T15:44:56;5.67;;;1.90;;
20705;SDS011;10514;49.468;11.044;2023-02-01T15:47:26;9.13;;;2.17;;
20705;SDS011;10514;49.468;11.044;2023-02-01T15:49:54;9.90;;;2.03;;
20705;SDS011;10514;49.468;11.044;2023-02-01T15:52:23;8.77;;;1.43;;
20705;SDS011;10514;49.468;11.044;2023-02-01T15:54:54;6.77;;;2.10;;
20705;SDS011;10514;49.468;11.044;2023-02-01T15:57:27;11.20;;;2.20;;
20705;SDS011;10514;49.468;11.044;2023-02-01T15:59:58;8.10;;;2.40;;
20705;SDS011;10514;49.468;11.044;2023-02-01T16:02:54;7.47;;;1.80;;
20705;SDS011;10514;49.468;11.044;2023-02-01T16:05:32;8.60;;;1.80;;
20705;SDS011;10514;49.468;11.044;2023-02-01T16:08:19;5.30;;;1.40;;
20705;SDS011;10514;49.468;11.044;2023-02-01T16:10:47;8.13;;;1.70;;
20705;SDS011;10514;49.468;11.044;2023-02-01T16:13:13;8.03;;;1.60;;
20705;SDS011;10514;49.468;11.044;2023-02-01T16:15:40;9.23;;;1.77;;
20705;SDS011;10514;49.468;11.044;2023-02-01T16:18:06;12.63;;;2.20;;
20705;SDS011;10514;49.468;11.044;2023-02-01T16:20:36;10.93;;;2.17;;
20705;SDS011;10514;49.468;11.044;2023-02-01T16:23:02;5.97;;;1.77;;
20705;SDS011;10514;49.468;11.044;2023-02-01T16:25:29;7.53;;;2.20;;
20705;SDS011;10514;49.468;11.044;2023-02-01T16:27:55;12.13;;;1.83;;
20705;SDS011;10514;49.468;11.044;2023-02-01T16:30:21;7.17;;;1.90;;
20705;SDS011;10514;49.468;11.044;2023-02-01T16:32:51;6.70;;;2.10;;
20705;SDS011;10514;49.468;11.044;2023-02-01T16:35:22;7.70;;;1.60;;
20705;SDS011;10514;49.468;11.044;2023-02-01T16:37:49;10.27;;;2.33;;
20705;SDS011;10514;49.468;11.044;2023-02-01T16:40:16;5.93;;;1.40;;
20705;SDS011;10514;49.468;11.044;2023-02-01T16:42:42;10.83;;;1.67;;
20705;SDS011;10514;49.468;11.044;2023-02-01T16:45:08;7.63;;;1.67;;
20705;SDS011;10514;49.468;11.044;2023-02-01T16:47:35;9.03;;;1.83;;
20705;SDS011;10514;49.468;11.044;2023-02-01T16:50:03;9.77;;;1.70;;
20705;SDS011;10514;49.468;11.044;2023-02-01T16:52:29;8.70;;;1.57;;